sensor_id;sensor_type;location;lat;lon;timestamp;P1;durP1;ratioP1;P2;durP2;ratioP2
26391;SDS011;14572;43.120;1.178;2022-11-20T07:27:27;0.60;;;0.43;;
26391;SDS011;14572;43.120;1.178;2022-11-20T07:29:54;1.50;;;0.63;;
26391;SDS011;14572;43.120;1.178;2022-11-20T07:32:24;0.63;;;0.50;;
26391;SDS011;14572;43.120;1.178;2022-11-20T07:34:51;3.70;;;0.60;;
26391;SDS011;14572;43.120;1.178;2022-11-20T07:37:19;3.90;;;0.50;;
26391;SDS011;14572;43.120;1.178;2022-11-20T07:39:46;0.50;;;0.50;;
26391;SDS011;14572;43.120;1.178;2022-11-20T07:42:13;0.93;;;0.50;;
26391;SDS011;14572;43.120;1.178;2022-11-20T07:44:46;1.00;;;0.50;;
26391;SDS011;14572;43.120;1.178;2022-11-20T07:47:14;0.50;;;0.43;;
26391;SDS011;14572;43.120;1.178;2022-11-20T07:49:41;3.20;;;0.50;;
26391;SDS011;14572;43.120;1.178;2022-11-20T07:52:16;1.33;;;0.50;;
26391;SDS011;14572;43.120;1.178;2022-11-20T07:54:49;0.73;;;0.60;;
26391;SDS011;14572;43.120;1.178;2022-11-20T07:57:20;0.68;;;0.40;;
26391;SDS011;14572;43.120;1.178;2022-11-20T07:59:51;1.08;;;0.70;;
26391;SDS011;14572;43.120;1.178;2022-11-20T08:02:18;4.40;;;0.73;;
26391;SDS011;14572;43.120;1.178;2022-11-20T08:04:45;1.00;;;0.80;;
26391;SDS011;14572;43.120;1.178;2022-11-20T08:07:12;2.40;;;0.80;;
26391;SDS011;14572;43.120;1.178;2022-11-20T08:09:45;1.07;;;0.90;;
26391;SDS011;14572;43.120;1.178;2022-11-20T08:12:15;1.60;;;1.10;;
26391;SDS011;14572;43.120;1.178;2022-11-20T08:15:03;0.95;;;0.63;;
26391;SDS011;14572;43.120;1.178;2022-11-20T08:17:31;2.00;;;1.05;;
26391;SDS011;14572;43.120;1.178;2022-11-20T08:19:58;1.40;;;1.03;;
26391;SDS011;14572;43.120;1.178;2022-11-20T08:22:25;0.85;;;0.70;;
26391;SDS011;14572;43.120;1.178;2022-11-20T08:24:52;2.05;;;0.93;;
26391;SDS011;14572;43.120;1.178;2022-11-20T08:27:19;2.95;;;0.85;;
26391;SDS011;14572;43.120;1.178;2022-11-20T08:29:46;1.90;;;0.63;;
26391;SDS011;14572;43.120;1.178;2022-11-20T08:32:25;27.67;;;1.50;;
26391;SDS011;14572;43.120;1.178;2022-11-20T08:34:52;3.08;;;1.10;;
26391;SDS011;14572;43.120;1.178;2022-11-20T08:37:19;1.20;;;1.10;;
26391;SDS011;14572;43.120;1.178;2022-11-20T08:39:49;2.38;;;0.80;;
26391;SDS011;14572;43.120;1.178;2022-11-20T08:42:22;2.65;;;0.93;;
26391;SDS011;14572;43.120;1.178;2022-11-20T08:44:59;1.13;;;0.80;;
26391;SDS011;14572;43.120;1.178;2022-11-20T08:47:27;2.58;;;0.80;;
26391;SDS011;14572;43.120;1.178;2022-11-20T08:49:54;1.48;;;0.85;;
26391;SDS011;14572;43.120;1.178;2022-11-20T08:52:21;1.15;;;0.63;;
26391;SDS011;14572;43.120;1.178;2022-11-20T08:54:48;1.67;;;1.10;;
26391;SDS011;14572;43.120;1.178;2022-11-20T08:57:15;2.35;;;0.80;;
26391;SDS011;14572;43.120;1.178;2022-11-20T08:59:45;3.20;;;1.00;;
26391;SDS011;14572;43.120;1.178;2022-11-20T09:02:12;3.80;;;1.52;;
26391;SDS011;14572;43.120;1.178;2022-11-20T09:04:41;4.85;;;3.33;;
26391;SDS011;14572;43.120;1.178;2022-11-20T09:07:09;7.63;;;5.15;;
26391;SDS011;14572;43.120;1.178;2022-11-20T09:09:36;3.30;;;2.38;;
26391;SDS011;14572;43.120;1.178;2022-11-20T09:12:06;4.85;;;4.07;;
26391;SDS011;14572;43.120;1.178;2022-11-20T09:14:36;2.10;;;1.30;;
26391;SDS011;14572;43.120;1.178;2022-11-20T09:17:03;5.15;;;1.15;;
26391;SDS011;14572;43.120;1.178;2022-11-20T09:19:32;6.82;;;2.45;;
26391;SDS011;14572;43.120;1.178;2022-11-20T09:22:04;9.40;;;7.47;;
26391;SDS011;14572;43.120;1.178;2022-11-20T09:24:31;2.78;;;1.92;;
26391;SDS011;14572;43.120;1.178;2022-11-20T09:27:04;2.10;;;1.45;;
26391;SDS011;14572;43.120;1.178;2022-11-20T09:29:36;4.28;;;1.30;;
26391;SDS011;14572;43.120;1.178;2022-11-20T09:32:03;2.53;;;1.30;;
26391;SDS011;14572;43.120;1.178;2022-11-20T09:34:31;1.67;;;1.10;;
26391;SDS011;14572;43.120;1.178;2022-11-20T09:37:01;2.38;;;1.23;;
26391;SDS011;14572;43.120;1.178;2022-11-20T09:39:29;2.55;;;1.10;;
26391;SDS011;14572;43.120;1.178;2022-11-20T09:42:03;1.63;;;0.90;;
26391;SDS011;14572;43.120;1.178;2022-11-20T09:44:40;5.30;;;1.10;;
26391;SDS011;14572;43.120;1.178;2022-11-20T09:47:18;2.70;;;1.38;;
26391;SDS011;14572;43.120;1.178;2022-11-20T09:49:56;1.55;;;1.02;;
26391;SDS011;14572;43.120;1.178;2022-11-20T09:52:30;1.77;;;1.10;;
26391;SDS011;14572;43.120;1.178;2022-11-20T09:55:02;1.05;;;0.70;;
26391;SDS011;14572;43.120;1.178;2022-11-20T09:57:32;2.15;;;0.88;;
26391;SDS011;14572;43.120;1.178;2022-11-20T10:00:03;0.93;;;0.50;;
26391;SDS011;14572;43.120;1.178;2022-11-20T10:02:37;0.90;;;0.55;;
26391;SDS011;14572;43.120;1.178;2022-11-20T10:05:09;1.20;;;0.70;;
26391;SDS011;14572;43.120;1.178;2022-11-20T10:07:40;1.92;;;0.60;;
26391;SDS011;14572;43.120;1.178;2022-11-20T10:10:15;0.77;;;0.50;;
26391;SDS011;14572;43.120;1.178;2022-11-20T10:12:48;1.95;;;0.45;;
26391;SDS011;14572;43.120;1.178;2022-11-20T10:15:25;1.20;;;0.45;;
26391;SDS011;14572;43.120;1.178;2022-11-20T10:18:04;0.80;;;0.50;;
26391;SDS011;14572;43.120;1.178;2022-11-20T10:20:43;1.40;;;0.52;;
26391;SDS011;14572;43.120;1.178;2022-11-20T10:23:18;1.77;;;0.43;;
26391;SDS011;14572;43.120;1.178;2022-11-20T10:25:54;1.90;;;0.50;;
26391;SDS011;14572;43.120;1.178;2022-11-20T10:28:25;6.50;;;0.95;;
26391;SDS011;14572;43.120;1.178;2022-11-20T10:31:08;1.60;;;0.47;;
26391;SDS011;14572;43.120;1.178;2022-11-20T10:33:36;0.70;;;0.35;;
26391;SDS011;14572;43.120;1.178;2022-11-20T10:36:08;0.47;;;0.20;;
26391;SDS011;14572;43.120;1.178;2022-11-20T10:38:41;0.30;;;0.20;;
26391;SDS011;14572;43.120;1.178;2022-11-20T10:41:12;0.28;;;0.10;;
26391;SDS011;14572;43.120;1.178;2022-11-20T10:43:54;1.00;;;0.20;;
26391;SDS011;14572;43.120;1.178;2022-11-20T10:46:27;0.50;;;0.20;;
26391;SDS011;14572;43.120;1.178;2022-11-20T10:49:02;0.43;;;0.20;;
26391;SDS011;14572;43.120;1.178;2022-11-20T10:51:35;0.85;;;0.13;;
26391;SDS011;14572;43.120;1.178;2022-11-20T10:54:07;0.25;;;0.10;;
26391;SDS011;14572;43.120;1.178;2022-11-20T10:56:41;0.25;;;0.10;;
26391;SDS011;14572;43.120;1.178;2022-11-20T10:59:30;0.30;;;0.10;;
26391;SDS011;14572;43.120;1.178;2022-11-20T11:02:12;0.70;;;0.20;;
26391;SDS011;14572;43.120;1.178;2022-11-20T11:04:43;0.10;;;0.10;;
26391;SDS011;14572;43.120;1.178;2022-11-20T11:07:12;0.55;;;0.13;;
26391;SDS011;14572;43.120;1.178;2022-11-20T11:09:43;0.13;;;0.13;;
26391;SDS011;14572;43.120;1.178;2022-11-20T11:12:12;0.75;;;0.38;;
26391;SDS011;14572;43.120;1.178;2022-11-20T11:14:46;0.30;;;0.10;;
26391;SDS011;14572;43.120;1.178;2022-11-20T11:17:18;0.10;;;0.10;;
26391;SDS011;14572;43.120;1.178;2022-11-20T11:20:03;0.60;;;0.20;;
26391;SDS011;14572;43.120;1.178;2022-11-20T11:22:32;1.23;;;0.20;;
26391;SDS011;14572;43.120;1.178;2022-11-20T11:25:00;0.90;;;0.38;;
26391;SDS011;14572;43.120;1.178;2022-11-20T11:27:29;0.90;;;0.57;;
26391;SDS011;14572;43.120;1.178;2022-11-20T11:30:10;1.33;;;0.80;;
26391;SDS011;14572;43.120;1.178;2022-11-20T11:32:39;0.10;;;0.10;;
26391;SDS011;14572;43.120;1.178;2022-11-20T11:35:07;2.72;;;0.10;;
26391;SDS011;14572;43.120;1.178;2022-11-20T11:37:46;0.52;;;0.30;;
26391;SDS011;14572;43.120;1.178;2022-11-20T11:40:14;0.63;;;0.30;;
26391;SDS011;14572;43.120;1.178;2022-11-20T11:42:43;0.20;;;0.20;;
26391;SDS011;14572;43.120;1.178;2022-11-20T11:45:17;1.27;;;0.20;;
26391;SDS011;14572;43.120;1.178;2022-11-20T11:47:44;0.70;;;0.30;;
26391;SDS011;14572;43.120;1.178;2022-11-20T11:50:14;0.45;;;0.25;;
26391;SDS011;14572;43.120;1.178;2022-11-20T11:52:43;0.25;;;0.20;;
26391;SDS011;14572;43.120;1.178;2022-11-20T11:55:14;1.45;;;0.25;;
26391;SDS011;14572;43.120;1.178;2022-11-20T11:57:46;0.20;;;0.20;;
26391;SDS011;14572;43.120;1.178;2022-11-20T12:00:16;0.50;;;0.30;;
26391;SDS011;14572;43.120;1.178;2022-11-20T12:02:49;0.55;;;0.20;;
26391;SDS011;14572;43.120;1.178;2022-11-20T12:05:23;1.75;;;0.20;;
26391;SDS011;14572;43.120;1.178;2022-11-20T12:07:52;0.68;;;0.17;;
26391;SDS011;14572;43.120;1.178;2022-11-20T12:10:21;0.85;;;0.20;;
26391;SDS011;14572;43.120;1.178;2022-11-20T12:12:55;0.20;;;0.20;;
26391;SDS011;14572;43.120;1.178;2022-11-20T12:15:29;0.70;;;0.20;;
26391;SDS011;14572;43.120;1.178;2022-11-20T12:17:57;0.60;;;0.30;;
26391;SDS011;14572;43.120;1.178;2022-11-20T12:20:26;1.00;;;0.30;;
26391;SDS011;14572;43.120;1.178;2022-11-20T12:22:57;0.70;;;0.30;;
26391;SDS011;14572;43.120;1.178;2022-11-20T12:25:29;1.48;;;0.65;;
26391;SDS011;14572;43.120;1.178;2022-11-20T12:28:15;1.00;;;0.60;;
26391;SDS011;14572;43.120;1.178;2022-11-20T12:30:50;0.77;;;0.50;;
26391;SDS011;14572;43.120;1.178;2022-11-20T12:36:27;1.75;;;0.70;;
26391;SDS011;14572;43.120;1.178;2022-11-20T12:39:13;0.80;;;0.50;;
26391;SDS011;14572;43.120;1.178;2022-11-20T12:41:50;2.38;;;0.95;;
26391;SDS011;14572;43.120;1.178;2022-11-20T12:44:43;2.13;;;1.35;;
26391;SDS011;14572;43.120;1.178;2022-11-20T12:47:53;2.15;;;0.85;;
26391;SDS011;14572;43.120;1.178;2022-11-20T12:50:33;4.57;;;1.10;;
26391;SDS011;14572;43.120;1.178;2022-11-20T12:53:10;1.10;;;0.82;;
26391;SDS011;14572;43.120;1.178;2022-11-20T12:55:42;5.57;;;1.50;;
26391;SDS011;14572;43.120;1.178;2022-11-20T12:58:17;4.38;;;2.17;;
26391;SDS011;14572;43.120;1.178;2022-11-20T13:00:51;4.60;;;2.50;;
26391;SDS011;14572;43.120;1.178;2022-11-20T13:06:06;5.90;;;3.67;;
26391;SDS011;14572;43.120;1.178;2022-11-20T13:08:38;8.93;;;3.83;;
26391;SDS011;14572;43.120;1.178;2022-11-20T13:11:08;6.35;;;3.15;;
26391;SDS011;14572;43.120;1.178;2022-11-20T13:13:42;8.20;;;3.30;;
26391;SDS011;14572;43.120;1.178;2022-11-20T13:16:14;2.95;;;2.10;;
26391;SDS011;14572;43.120;1.178;2022-11-20T13:18:44;6.40;;;2.40;;
26391;SDS011;14572;43.120;1.178;2022-11-20T13:21:15;6.32;;;2.85;;
26391;SDS011;14572;43.120;1.178;2022-11-20T13:23:43;5.05;;;2.78;;
26391;SDS011;14572;43.120;1.178;2022-11-20T13:26:17;4.97;;;2.45;;
26391;SDS011;14572;43.120;1.178;2022-11-20T13:28:46;3.40;;;1.95;;
26391;SDS011;14572;43.120;1.178;2022-11-20T13:31:32;3.50;;;1.73;;
26391;SDS011;14572;43.120;1.178;2022-11-20T13:34:01;2.10;;;1.35;;
26391;SDS011;14572;43.120;1.178;2022-11-20T13:36:30;3.60;;;1.80;;
26391;SDS011;14572;43.120;1.178;2022-11-20T13:38:57;3.53;;;1.98;;
26391;SDS011;14572;43.120;1.178;2022-11-20T13:41:28;4.95;;;2.28;;
26391;SDS011;14572;43.120;1.178;2022-11-20T13:43:59;4.82;;;2.47;;
26391;SDS011;14572;43.120;1.178;2022-11-20T13:46:40;4.65;;;3.00;;
26391;SDS011;14572;43.120;1.178;2022-11-20T13:49:09;6.55;;;3.00;;
26391;SDS011;14572;43.120;1.178;2022-11-20T13:51:42;7.43;;;3.25;;
26391;SDS011;14572;43.120;1.178;2022-11-20T13:54:27;4.63;;;2.55;;
26391;SDS011;14572;43.120;1.178;2022-11-20T13:57:08;4.60;;;2.25;;
26391;SDS011;14572;43.120;1.178;2022-11-20T13:59:45;5.30;;;2.38;;
26391;SDS011;14572;43.120;1.178;2022-11-20T14:02:21;6.35;;;2.50;;
26391;SDS011;14572;43.120;1.178;2022-11-20T14:04:49;4.75;;;2.15;;
26391;SDS011;14572;43.120;1.178;2022-11-20T14:07:18;5.90;;;1.80;;
26391;SDS011;14572;43.120;1.178;2022-11-20T14:09:50;7.95;;;2.47;;
26391;SDS011;14572;43.120;1.178;2022-11-20T14:12:19;4.63;;;2.05;;
26391;SDS011;14572;43.120;1.178;2022-11-20T14:14:48;4.75;;;2.53;;
26391;SDS011;14572;43.120;1.178;2022-11-20T14:17:18;5.70;;;2.17;;
26391;SDS011;14572;43.120;1.178;2022-11-20T14:19:48;7.40;;;2.20;;
26391;SDS011;14572;43.120;1.178;2022-11-20T14:22:17;5.50;;;1.95;;
26391;SDS011;14572;43.120;1.178;2022-11-20T14:24:46;7.35;;;1.80;;
26391;SDS011;14572;43.120;1.178;2022-11-20T14:27:14;9.43;;;1.75;;
26391;SDS011;14572;43.120;1.178;2022-11-20T14:29:43;5.28;;;1.80;;
26391;SDS011;14572;43.120;1.178;2022-11-20T14:32:11;4.38;;;1.50;;
26391;SDS011;14572;43.120;1.178;2022-11-20T14:34:43;10.40;;;1.83;;
26391;SDS011;14572;43.120;1.178;2022-11-20T14:37:12;5.88;;;1.02;;
26391;SDS011;14572;43.120;1.178;2022-11-20T14:39:47;13.75;;;1.73;;
26391;SDS011;14572;43.120;1.178;2022-11-20T14:42:16;11.13;;;4.03;;
26391;SDS011;14572;43.120;1.178;2022-11-20T14:44:45;13.63;;;4.90;;
26391;SDS011;14572;43.120;1.178;2022-11-20T14:47:12;10.07;;;1.85;;
26391;SDS011;14572;43.120;1.178;2022-11-20T14:49:40;14.70;;;5.10;;
26391;SDS011;14572;43.120;1.178;2022-11-20T14:52:13;11.68;;;3.92;;
26391;SDS011;14572;43.120;1.178;2022-11-20T14:54:44;13.18;;;2.78;;
26391;SDS011;14572;43.120;1.178;2022-11-20T14:57:23;8.82;;;2.60;;
26391;SDS011;14572;43.120;1.178;2022-11-20T14:59:51;12.38;;;2.28;;
26391;SDS011;14572;43.120;1.178;2022-11-20T15:02:30;12.32;;;1.83;;
26391;SDS011;14572;43.120;1.178;2022-11-20T15:04:57;18.13;;;4.07;;
26391;SDS011;14572;43.120;1.178;2022-11-20T15:07:31;15.52;;;2.10;;
26391;SDS011;14572;43.120;1.178;2022-11-20T15:10:00;13.63;;;2.00;;
26391;SDS011;14572;43.120;1.178;2022-11-20T15:12:29;12.18;;;1.70;;
26391;SDS011;14572;43.120;1.178;2022-11-20T15:14:56;10.23;;;1.40;;
26391;SDS011;14572;43.120;1.178;2022-11-20T15:17:23;14.00;;;1.88;;
26391;SDS011;14572;43.120;1.178;2022-11-20T15:19:51;13.10;;;1.35;;
26391;SDS011;14572;43.120;1.178;2022-11-20T15:22:19;14.73;;;1.67;;
26391;SDS011;14572;43.120;1.178;2022-11-20T15:24:48;17.63;;;1.75;;
26391;SDS011;14572;43.120;1.178;2022-11-20T15:27:15;9.48;;;1.27;;
26391;SDS011;14572;43.120;1.178;2022-11-20T15:29:42;12.13;;;1.30;;
26391;SDS011;14572;43.120;1.178;2022-11-20T15:32:09;8.57;;;1.25;;
26391;SDS011;14572;43.120;1.178;2022-11-20T15:34:36;6.43;;;1.15;;
26391;SDS011;14572;43.120;1.178;2022-11-20T15:37:03;14.02;;;1.63;;
26391;SDS011;14572;43.120;1.178;2022-11-20T15:39:30;6.10;;;1.30;;
26391;SDS011;14572;43.120;1.178;2022-11-20T15:41:58;11.07;;;1.10;;
26391;SDS011;14572;43.120;1.178;2022-11-20T15:44:26;11.68;;;1.15;;
26391;SDS011;14572;43.120;1.178;2022-11-20T15:46:53;8.98;;;1.65;;
26391;SDS011;14572;43.120;1.178;2022-11-20T15:49:20;7.80;;;1.45;;
26391;SDS011;14572;43.120;1.178;2022-11-20T15:51:49;15.05;;;2.33;;
26391;SDS011;14572;43.120;1.178;2022-11-20T15:54:18;11.38;;;2.20;;
26391;SDS011;14572;43.120;1.178;2022-11-20T15:56:46;21.52;;;8.55;;
26391;SDS011;14572;43.120;1.178;2022-11-20T15:59:14;9.20;;;2.63;;
26391;SDS011;14572;43.120;1.178;2022-11-20T16:01:42;9.30;;;1.30;;
26391;SDS011;14572;43.120;1.178;2022-11-20T16:04:09;9.27;;;1.90;;
26391;SDS011;14572;43.120;1.178;2022-11-20T16:06:37;10.48;;;1.13;;
26391;SDS011;14572;43.120;1.178;2022-11-20T16:09:04;14.82;;;4.28;;
26391;SDS011;14572;43.120;1.178;2022-11-20T16:11:31;13.70;;;4.50;;
26391;SDS011;14572;43.120;1.178;2022-11-20T16:13:58;10.27;;;2.28;;
26391;SDS011;14572;43.120;1.178;2022-11-20T16:16:44;4.70;;;1.20;;
26391;SDS011;14572;43.120;1.178;2022-11-20T16:19:11;8.82;;;1.05;;
26391;SDS011;14572;43.120;1.178;2022-11-20T16:21:39;10.38;;;4.25;;
26391;SDS011;14572;43.120;1.178;2022-11-20T16:24:07;5.05;;;1.30;;
26391;SDS011;14572;43.120;1.178;2022-11-20T16:26:36;10.30;;;1.30;;
26391;SDS011;14572;43.120;1.178;2022-11-20T16:29:04;9.07;;;0.90;;
26391;SDS011;14572;43.120;1.178;2022-11-20T16:31:31;7.45;;;0.98;;
26391;SDS011;14572;43.120;1.178;2022-11-20T16:34:01;10.68;;;0.98;;
26391;SDS011;14572;43.120;1.178;2022-11-20T16:36:29;10.10;;;1.17;;
26391;SDS011;14572;43.120;1.178;2022-11-20T16:38:57;6.13;;;1.25;;
26391;SDS011;14572;43.120;1.178;2022-11-20T16:41:25;10.00;;;1.33;;
26391;SDS011;14572;43.120;1.178;2022-11-20T16:43:53;10.43;;;1.10;;
26391;SDS011;14572;43.120;1.178;2022-11-20T16:46:22;8.05;;;1.10;;
26391;SDS011;14572;43.120;1.178;2022-11-20T16:48:54;8.32;;;1.00;;
26391;SDS011;14572;43.120;1.178;2022-11-20T16:51:23;5.93;;;0.73;;
26391;SDS011;14572;43.120;1.178;2022-11-20T16:53:51;15.70;;;1.85;;
26391;SDS011;14572;43.120;1.178;2022-11-20T16:56:20;9.82;;;1.20;;
26391;SDS011;14572;43.120;1.178;2022-11-20T16:58:49;6.20;;;0.90;;
26391;SDS011;14572;43.120;1.178;2022-11-20T17:01:17;11.30;;;1.70;;
26391;SDS011;14572;43.120;1.178;2022-11-20T17:03:46;15.52;;;2.40;;
26391;SDS011;14572;43.120;1.178;2022-11-20T17:06:17;6.40;;;1.42;;
26391;SDS011;14572;43.120;1.178;2022-11-20T17:08:47;11.30;;;1.20;;
26391;SDS011;14572;43.120;1.178;2022-11-20T17:11:14;8.48;;;1.20;;
26391;SDS011;14572;43.120;1.178;2022-11-20T17:13:43;9.60;;;1.30;;
26391;SDS011;14572;43.120;1.178;2022-11-20T17:16:11;14.48;;;1.33;;
26391;SDS011;14572;43.120;1.178;2022-11-20T17:18:39;7.28;;;1.30;;
26391;SDS011;14572;43.120;1.178;2022-11-20T17:21:06;6.85;;;1.30;;
26391;SDS011;14572;43.120;1.178;2022-11-20T17:23:34;11.65;;;1.98;;
26391;SDS011;14572;43.120;1.178;2022-11-20T17:26:03;6.07;;;0.90;;
26391;SDS011;14572;43.120;1.178;2022-11-20T17:28:32;9.35;;;1.05;;
26391;SDS011;14572;43.120;1.178;2022-11-20T17:30:59;7.85;;;1.23;;
26391;SDS011;14572;43.120;1.178;2022-11-20T17:33:26;9.48;;;1.38;;
26391;SDS011;14572;43.120;1.178;2022-11-20T17:35:54;7.43;;;0.90;;
26391;SDS011;14572;43.120;1.178;2022-11-20T17:38:21;7.20;;;0.88;;
26391;SDS011;14572;43.120;1.178;2022-11-20T17:40:48;5.50;;;0.85;;
26391;SDS011;14572;43.120;1.178;2022-11-20T17:43:17;6.10;;;0.93;;
26391;SDS011;14572;43.120;1.178;2022-11-20T17:45:44;6.60;;;0.82;;
26391;SDS011;14572;43.120;1.178;2022-11-20T17:48:11;6.82;;;0.90;;
26391;SDS011;14572;43.120;1.178;2022-11-20T17:50:38;4.15;;;0.40;;
26391;SDS011;14572;43.120;1.178;2022-11-20T17:53:05;5.72;;;0.52;;
26391;SDS011;14572;43.120;1.178;2022-11-20T17:55:32;4.88;;;1.20;;
26391;SDS011;14572;43.120;1.178;2022-11-20T17:58:13;6.80;;;0.60;;
26391;SDS011;14572;43.120;1.178;2022-11-20T18:00:42;7.45;;;0.68;;
26391;SDS011;14572;43.120;1.178;2022-11-20T18:03:09;3.42;;;0.70;;
26391;SDS011;14572;43.120;1.178;2022-11-20T18:05:36;6.60;;;0.85;;
26391;SDS011;14572;43.120;1.178;2022-11-20T18:08:03;7.40;;;0.80;;
26391;SDS011;14572;43.120;1.178;2022-11-20T18:10:30;5.53;;;0.95;;
26391;SDS011;14572;43.120;1.178;2022-11-20T18:12:57;18.75;;;6.15;;
26391;SDS011;14572;43.120;1.178;2022-11-20T18:15:24;34.13;;;14.80;;
26391;SDS011;14572;43.120;1.178;2022-11-20T18:17:53;56.17;;;20.45;;
26391;SDS011;14572;43.120;1.178;2022-11-20T18:20:20;21.33;;;7.93;;
26391;SDS011;14572;43.120;1.178;2022-11-20T18:22:47;4.90;;;1.92;;
26391;SDS011;14572;43.120;1.178;2022-11-20T18:25:14;5.93;;;1.45;;
26391;SDS011;14572;43.120;1.178;2022-11-20T18:27:41;4.47;;;1.40;;
26391;SDS011;14572;43.120;1.178;2022-11-20T18:30:08;4.22;;;1.17;;
26391;SDS011;14572;43.120;1.178;2022-11-20T18:32:36;4.30;;;1.05;;
26391;SDS011;14572;43.120;1.178;2022-11-20T18:35:05;4.45;;;0.70;;
26391;SDS011;14572;43.120;1.178;2022-11-20T18:37:33;5.70;;;0.50;;
26391;SDS011;14572;43.120;1.178;2022-11-20T18:40:00;2.17;;;0.70;;
26391;SDS011;14572;43.120;1.178;2022-11-20T18:42:27;3.38;;;1.73;;
26391;SDS011;14572;43.120;1.178;2022-11-20T18:45:11;8.27;;;3.72;;
26391;SDS011;14572;43.120;1.178;2022-11-20T18:47:39;6.90;;;2.28;;
26391;SDS011;14572;43.120;1.178;2022-11-20T18:50:08;2.58;;;1.40;;
26391;SDS011;14572;43.120;1.178;2022-11-20T18:52:37;7.43;;;1.27;;
26391;SDS011;14572;43.120;1.178;2022-11-20T18:55:06;4.88;;;1.00;;
26391;SDS011;14572;43.120;1.178;2022-11-20T18:57:34;5.72;;;1.10;;
26391;SDS011;14572;43.120;1.178;2022-11-20T19:00:02;8.25;;;2.40;;
26391;SDS011;14572;43.120;1.178;2022-11-20T19:02:30;4.00;;;1.40;;
26391;SDS011;14572;43.120;1.178;2022-11-20T19:05:00;5.53;;;0.93;;
26391;SDS011;14572;43.120;1.178;2022-11-20T19:07:28;5.28;;;1.38;;
26391;SDS011;14572;43.120;1.178;2022-11-20T19:09:55;9.20;;;2.13;;
26391;SDS011;14572;43.120;1.178;2022-11-20T19:12:22;5.72;;;1.65;;
26391;SDS011;14572;43.120;1.178;2022-11-20T19:14:50;7.28;;;2.97;;
26391;SDS011;14572;43.120;1.178;2022-11-20T19:17:17;3.63;;;1.90;;
26391;SDS011;14572;43.120;1.178;2022-11-20T19:19:44;23.83;;;14.35;;
26391;SDS011;14572;43.120;1.178;2022-11-20T19:22:11;6.78;;;2.72;;
26391;SDS011;14572;43.120;1.178;2022-11-20T19:24:40;6.15;;;3.20;;
26391;SDS011;14572;43.120;1.178;2022-11-20T19:27:07;9.48;;;5.03;;
26391;SDS011;14572;43.120;1.178;2022-11-20T19:29:34;6.18;;;2.30;;
26391;SDS011;14572;43.120;1.178;2022-11-20T19:32:01;4.18;;;1.60;;
26391;SDS011;14572;43.120;1.178;2022-11-20T19:34:29;6.57;;;2.70;;
26391;SDS011;14572;43.120;1.178;2022-11-20T19:36:56;11.10;;;5.35;;
26391;SDS011;14572;43.120;1.178;2022-11-20T19:39:24;6.18;;;1.63;;
26391;SDS011;14572;43.120;1.178;2022-11-20T19:41:53;4.18;;;1.50;;
26391;SDS011;14572;43.120;1.178;2022-11-20T19:44:20;13.18;;;6.38;;
26391;SDS011;14572;43.120;1.178;2022-11-20T19:46:47;5.57;;;1.90;;
26391;SDS011;14572;43.120;1.178;2022-11-20T19:49:15;8.13;;;3.85;;
26391;SDS011;14572;43.120;1.178;2022-11-20T19:51:45;43.85;;;23.27;;
26391;SDS011;14572;43.120;1.178;2022-11-20T19:54:13;14.23;;;7.18;;
26391;SDS011;14572;43.120;1.178;2022-11-20T19:56:41;12.90;;;6.93;;
26391;SDS011;14572;43.120;1.178;2022-11-20T19:59:10;9.07;;;5.93;;
26391;SDS011;14572;43.120;1.178;2022-11-20T20:01:38;5.85;;;3.47;;
26391;SDS011;14572;43.120;1.178;2022-11-20T20:04:05;6.75;;;2.65;;
26391;SDS011;14572;43.120;1.178;2022-11-20T20:06:33;9.50;;;3.30;;
26391;SDS011;14572;43.120;1.178;2022-11-20T20:09:03;4.78;;;1.70;;
26391;SDS011;14572;43.120;1.178;2022-11-20T20:11:32;4.65;;;2.25;;
26391;SDS011;14572;43.120;1.178;2022-11-20T20:14:00;11.70;;;2.20;;
26391;SDS011;14572;43.120;1.178;2022-11-20T20:16:28;12.18;;;2.40;;
26391;SDS011;14572;43.120;1.178;2022-11-20T20:18:55;6.53;;;1.40;;
26391;SDS011;14572;43.120;1.178;2022-11-20T20:21:23;5.07;;;1.35;;
26391;SDS011;14572;43.120;1.178;2022-11-20T20:23:51;8.48;;;1.80;;
26391;SDS011;14572;43.120;1.178;2022-11-20T20:26:19;7.78;;;3.30;;
26391;SDS011;14572;43.120;1.178;2022-11-20T20:28:47;9.02;;;3.63;;
26391;SDS011;14572;43.120;1.178;2022-11-20T20:31:14;13.57;;;4.65;;
26391;SDS011;14572;43.120;1.178;2022-11-20T20:33:44;16.17;;;6.90;;
26391;SDS011;14572;43.120;1.178;2022-11-20T20:36:12;11.90;;;5.63;;
26391;SDS011;14572;43.120;1.178;2022-11-20T20:38:41;20.00;;;8.63;;
26391;SDS011;14572;43.120;1.178;2022-11-20T20:41:10;9.15;;;5.43;;
26391;SDS011;14572;43.120;1.178;2022-11-20T20:43:37;8.52;;;3.80;;
26391;SDS011;14572;43.120;1.178;2022-11-20T20:46:18;6.65;;;2.63;;
26391;SDS011;14572;43.120;1.178;2022-11-20T20:48:46;9.82;;;3.47;;
26391;SDS011;14572;43.120;1.178;2022-11-20T20:51:14;9.95;;;3.38;;
26391;SDS011;14572;43.120;1.178;2022-11-20T20:53:41;8.73;;;2.35;;
26391;SDS011;14572;43.120;1.178;2022-11-20T20:56:08;6.25;;;1.98;;
26391;SDS011;14572;43.120;1.178;2022-11-20T20:58:35;6.13;;;1.75;;
26391;SDS011;14572;43.120;1.178;2022-11-20T21:01:02;2.00;;;1.17;;
26391;SDS011;14572;43.120;1.178;2022-11-20T21:03:30;3.53;;;1.08;;
26391;SDS011;14572;43.120;1.178;2022-11-20T21:06:00;13.45;;;1.45;;
26391;SDS011;14572;43.120;1.178;2022-11-20T21:08:27;4.97;;;1.50;;
26391;SDS011;14572;43.120;1.178;2022-11-20T21:10:59;2.25;;;1.00;;
26391;SDS011;14572;43.120;1.178;2022-11-20T21:13:27;5.97;;;1.20;;
26391;SDS011;14572;43.120;1.178;2022-11-20T21:15:54;4.22;;;1.00;;
26391;SDS011;14572;43.120;1.178;2022-11-20T21:18:23;4.22;;;1.27;;
26391;SDS011;14572;43.120;1.178;2022-11-20T21:20:50;6.70;;;1.38;;
26391;SDS011;14572;43.120;1.178;2022-11-20T21:23:37;5.90;;;1.40;;
26391;SDS011;14572;43.120;1.178;2022-11-20T21:26:06;6.35;;;1.20;;
26391;SDS011;14572;43.120;1.178;2022-11-20T21:28:35;4.85;;;1.20;;
26391;SDS011;14572;43.120;1.178;2022-11-20T21:31:06;3.97;;;1.42;;
26391;SDS011;14572;43.120;1.178;2022-11-20T21:33:35;3.17;;;1.25;;
26391;SDS011;14572;43.120;1.178;2022-11-20T21:36:03;6.90;;;1.65;;
26391;SDS011;14572;43.120;1.178;2022-11-20T21:38:31;6.15;;;1.45;;
26391;SDS011;14572;43.120;1.178;2022-11-20T21:40:59;5.57;;;1.67;;
26391;SDS011;14572;43.120;1.178;2022-11-20T21:43:28;5.95;;;1.50;;
26391;SDS011;14572;43.120;1.178;2022-11-20T21:45:59;3.45;;;1.42;;
26391;SDS011;14572;43.120;1.178;2022-11-20T21:48:27;12.38;;;1.58;;
26391;SDS011;14572;43.120;1.178;2022-11-20T21:50:55;5.20;;;1.50;;
26391;SDS011;14572;43.120;1.178;2022-11-20T21:53:22;6.75;;;1.48;;
26391;SDS011;14572;43.120;1.178;2022-11-20T21:55:52;4.72;;;1.30;;
26391;SDS011;14572;43.120;1.178;2022-11-20T21:58:21;3.90;;;1.40;;
26391;SDS011;14572;43.120;1.178;2022-11-20T22:00:48;14.13;;;1.70;;
26391;SDS011;14572;43.120;1.178;2022-11-20T22:03:15;2.88;;;1.20;;
26391;SDS011;14572;43.120;1.178;2022-11-20T22:05:42;4.72;;;1.40;;
26391;SDS011;14572;43.120;1.178;2022-11-20T22:08:09;8.52;;;2.00;;
26391;SDS011;14572;43.120;1.178;2022-11-20T22:10:36;7.03;;;1.35;;
26391;SDS011;14572;43.120;1.178;2022-11-20T22:13:03;6.28;;;1.23;;
26391;SDS011;14572;43.120;1.178;2022-11-20T22:15:54;7.55;;;2.70;;
26391;SDS011;14572;43.120;1.178;2022-11-20T22:18:26;24.92;;;9.57;;
26391;SDS011;14572;43.120;1.178;2022-11-20T22:20:53;16.38;;;7.22;;
26391;SDS011;14572;43.120;1.178;2022-11-20T22:23:20;15.00;;;5.00;;
26391;SDS011;14572;43.120;1.178;2022-11-20T22:25:47;10.75;;;4.22;;
26391;SDS011;14572;43.120;1.178;2022-11-20T22:28:14;13.43;;;3.72;;
26391;SDS011;14572;43.120;1.178;2022-11-20T22:30:41;11.65;;;4.53;;
26391;SDS011;14572;43.120;1.178;2022-11-20T22:33:10;16.60;;;5.93;;
26391;SDS011;14572;43.120;1.178;2022-11-20T22:35:37;15.32;;;5.53;;